Time;durP1;ratioP1;P1;durP2;ratioP2;P2;SDS_P1;SDS_P2;PMS_P1;PMS_P2;Temp;Humidity;BMP_temperature;BMP_pressure;BME280_temperature;BME280_humidity;BME280_pressure;Samples;Min_cycle;Max_cycle;Signal;HPM_P1;HPM_P2
2023/01/17 00:00:34;;;;;;;1.98;0.73;;;4.30;99.90;;;;;;5091804;28;20755;-73
2023/01/17 00:02:59;;;;;;;1.27;0.90;;;4.30;99.90;;;;;;5091289;28;20756;-73
2023/01/17 00:10:57;;;;;;;1.80;0.95;;;4.30;99.90;;;;;;5091865;28;20417;-73
2023/01/17 00:13:22;;;;;;;1.23;0.80;;;4.30;99.90;;;;;;5090919;28;20423;-73
2023/01/17 00:15:48;;;;;;;0.95;0.65;;;4.20;99.90;;;;;;5089931;28;20764;-73
2023/01/17 00:18:13;;;;;;;0.90;0.60;;;4.20;99.90;;;;;;5091213;28;20418;-73
2023/01/17 00:26:18;;;;;;;1.38;0.70;;;4.20;99.90;;;;;;5091326;28;20431;-73
2023/01/17 01:35:41;;;;;;;0.50;0.40;;;3.90;99.90;;;;;;5070404;28;20370;-74
2023/01/17 01:38:07;;;;;;;0.80;0.52;;;3.90;99.90;;;;;;5069923;28;20379;-73
2023/01/17 01:40:32;;;;;;;0.60;0.40;;;3.90;99.90;;;;;;5053666;28;20984;-71
2023/01/17 01:43:00;;;;;;;2.00;0.60;;;3.90;99.90;;;;;;5089434;28;20413;-71
2023/01/17 01:45:28;;;;;;;1.20;0.50;;;4.00;99.90;;;;;;5071823;28;20382;-72
2023/01/17 01:48:05;;;;;;;1.20;0.50;;;4.10;99.90;;;;;;5089958;28;20382;-73
2023/01/17 01:50:33;;;;;;;1.20;0.60;;;4.00;99.90;;;;;;5089750;28;20753;-73
2023/01/17 01:53:03;;;;;;;0.98;0.70;;;4.10;99.90;;;;;;5089300;28;20857;-71
2023/01/17 01:55:32;;;;;;;1.20;0.52;;;4.10;99.90;;;;;;5089855;28;20394;-74
2023/01/17 01:58:03;;;;;;;0.80;0.50;;;4.10;99.90;;;;;;5112444;22;20408;-72
2023/01/17 02:00:32;;;;;;;1.00;0.60;;;4.20;99.90;;;;;;5110532;28;20840;-72
2023/01/17 02:03:01;;;;;;;1.60;0.50;;;4.20;99.90;;;;;;5109625;28;20392;-72
2023/01/17 02:05:27;;;;;;;0.60;0.50;;;4.10;99.90;;;;;;5110083;28;20463;-72
2023/01/17 02:08:00;;;;;;;0.95;0.60;;;4.20;99.90;;;;;;5104161;28;20395;-72
2023/01/17 02:10:25;;;;;;;0.70;0.40;;;4.20;99.90;;;;;;5089869;28;20434;-72
2023/01/17 02:12:53;;;;;;;0.80;0.40;;;4.20;99.90;;;;;;5091793;28;20429;-72
2023/01/17 02:15:24;;;;;;;1.20;0.60;;;4.20;99.90;;;;;;5110104;28;20399;-72
2023/01/17 02:18:06;;;;;;;1.33;0.65;;;4.30;99.90;;;;;;5110112;28;20858;-72
2023/01/17 02:21:08;;;;;;;1.13;0.43;;;4.20;99.90;;;;;;5110289;28;20855;-72
2023/01/17 02:23:49;;;;;;;2.20;0.53;;;4.20;99.90;;;;;;5083995;28;20447;-72
2023/01/17 02:26:33;;;;;;;1.02;0.50;;;4.30;99.90;;;;;;5089781;28;20772;-72
2023/01/17 02:29:20;;;;;;;1.45;0.57;;;4.20;99.90;;;;;;5098691;28;20926;-72
2023/01/17 02:32:00;;;;;;;1.92;0.60;;;4.20;99.90;;;;;;5110020;28;20502;-72
2023/01/17 02:34:28;;;;;;;1.67;0.40;;;4.30;99.90;;;;;;5109482;28;20372;-72
2023/01/17 02:36:57;;;;;;;0.98;0.40;;;4.30;99.90;;;;;;5109997;28;20372;-72
2023/01/17 02:39:33;;;;;;;1.20;0.50;;;4.30;99.90;;;;;;5098938;28;20389;-72
2023/01/17 02:42:09;;;;;;;1.58;0.40;;;4.30;99.90;;;;;;5093818;28;20393;-72
2023/01/17 02:44:42;;;;;;;1.20;0.50;;;4.30;99.90;;;;;;5110212;28;20574;-72
2023/01/17 02:47:34;;;;;;;1.40;0.60;;;4.30;99.90;;;;;;5095112;28;20395;-72
2023/01/17 02:50:12;;;;;;;1.88;0.70;;;4.30;99.90;;;;;;5108536;28;20388;-72
2023/01/17 02:53:07;;;;;;;2.47;0.60;;;4.30;99.90;;;;;;5111885;28;20376;-72
2023/01/17 02:55:56;;;;;;;1.00;0.70;;;4.30;99.90;;;;;;5093522;28;20431;-72
2023/01/17 02:58:40;;;;;;;1.90;0.63;;;4.30;99.90;;;;;;5092881;28;20935;-72
2023/01/17 03:01:25;;;;;;;1.40;0.65;;;4.30;99.90;;;;;;5113640;28;20467;-72
2023/01/17 03:03:59;;;;;;;0.80;0.60;;;4.20;99.90;;;;;;5112791;28;20830;-72
2023/01/17 03:06:29;;;;;;;2.10;0.80;;;4.30;99.90;;;;;;5113759;28;20384;-72
2023/01/17 03:08:54;;;;;;;1.10;0.70;;;4.30;99.90;;;;;;5112198;28;20439;-72
2023/01/17 03:11:20;;;;;;;1.80;0.80;;;4.30;99.90;;;;;;5113127;28;20439;-72
2023/01/17 03:13:45;;;;;;;1.42;0.73;;;4.20;99.90;;;;;;5112564;28;20377;-72
2023/01/17 03:16:20;;;;;;;0.95;0.80;;;4.20;99.90;;;;;;5098897;28;20835;-72
2023/01/17 03:18:46;;;;;;;1.15;0.65;;;4.20;99.90;;;;;;5092516;28;20384;-72
2023/01/17 03:21:12;;;;;;;1.05;0.75;;;4.30;99.90;;;;;;5092606;28;20386;-72
2023/01/17 03:23:37;;;;;;;2.53;0.75;;;4.30;99.90;;;;;;5091788;28;20401;-72
2023/01/17 03:26:03;;;;;;;1.30;0.60;;;4.30;99.90;;;;;;5104120;28;20476;-72
2023/01/17 03:28:28;;;;;;;0.80;0.70;;;4.40;99.90;;;;;;5112866;28;20517;-72
2023/01/17 03:30:54;;;;;;;1.75;0.77;;;4.40;99.90;;;;;;5112785;28;20396;-72
2023/01/17 03:33:19;;;;;;;2.15;0.80;;;4.40;99.90;;;;;;5096850;28;20428;-72
2023/01/17 03:35:46;;;;;;;1.30;0.88;;;4.50;99.90;;;;;;5092338;28;20388;-72
2023/01/17 03:38:11;;;;;;;1.50;0.60;;;4.40;99.90;;;;;;5092267;28;20420;-72
2023/01/17 03:40:36;;;;;;;2.00;0.80;;;4.40;99.90;;;;;;5092321;28;20386;-72
2023/01/17 03:43:02;;;;;;;1.37;0.90;;;4.40;99.90;;;;;;5084680;28;20395;-72
2023/01/17 03:45:28;;;;;;;1.50;0.80;;;4.40;99.90;;;;;;5111937;28;20391;-72
2023/01/17 03:47:55;;;;;;;1.13;0.97;;;4.40;99.90;;;;;;5112006;28;20388;-72
2023/01/17 03:50:21;;;;;;;2.30;0.80;;;4.40;99.90;;;;;;5083865;28;21161;-71
2023/01/17 03:52:46;;;;;;;2.10;0.60;;;4.40;99.90;;;;;;5091282;28;20512;-72
2023/01/17 03:55:12;;;;;;;1.80;0.80;;;4.50;99.90;;;;;;5091978;28;20385;-72
2023/01/17 03:57:37;;;;;;;2.22;0.70;;;4.50;99.90;;;;;;5091928;28;20370;-72
2023/01/17 04:00:04;;;;;;;2.00;0.70;;;4.40;99.90;;;;;;5097689;28;20407;-72
2023/01/17 04:02:29;;;;;;;1.40;0.83;;;4.50;99.90;;;;;;5104973;28;20426;-72
2023/01/17 04:04:55;;;;;;;1.77;0.80;;;4.40;99.90;;;;;;5091403;28;20374;-72
2023/01/17 04:07:21;;;;;;;2.23;0.80;;;4.40;99.90;;;;;;5074919;28;20394;-72
2023/01/17 04:09:47;;;;;;;2.00;0.90;;;4.40;99.90;;;;;;5112066;28;20373;-72
2023/01/17 04:12:13;;;;;;;2.10;1.23;;;4.40;99.90;;;;;;5111302;28;20457;-72
2023/01/17 04:14:39;;;;;;;1.30;0.77;;;4.40;99.90;;;;;;5103823;28;20932;-72
2023/01/17 04:17:06;;;;;;;1.48;0.70;;;4.50;99.90;;;;;;5091623;28;20370;-72
2023/01/17 04:19:34;;;;;;;1.37;0.60;;;4.40;99.90;;;;;;5091355;28;20755;-72
2023/01/17 04:21:59;;;;;;;2.30;0.60;;;4.50;99.90;;;;;;5091518;28;20469;-72
2023/01/17 04:24:25;;;;;;;2.00;0.70;;;4.50;99.90;;;;;;5094575;28;21167;-72
2023/01/17 04:26:51;;;;;;;0.60;0.50;;;4.50;99.90;;;;;;5111714;28;20380;-72
2023/01/17 04:29:16;;;;;;;1.15;0.60;;;4.50;99.90;;;;;;5093240;28;20398;-72
2023/01/17 04:31:42;;;;;;;2.00;0.70;;;4.50;99.90;;;;;;5091466;28;20424;-72
2023/01/17 04:34:07;;;;;;;2.60;1.00;;;4.50;99.90;;;;;;5089277;28;20381;-72
2023/01/17 04:36:33;;;;;;;1.90;0.70;;;4.50;99.90;;;;;;5091486;28;20374;-72
2023/01/17 04:38:58;;;;;;;1.80;0.60;;;4.50;99.90;;;;;;5105763;28;20387;-72
2023/01/17 04:41:24;;;;;;;2.47;0.93;;;4.50;99.90;;;;;;5111933;28;20416;-72
2023/01/17 04:43:49;;;;;;;2.27;0.80;;;4.50;99.90;;;;;;5111030;28;20731;-72
2023/01/17 04:46:15;;;;;;;2.00;0.70;;;4.40;99.90;;;;;;5111899;28;20806;-72
2023/01/17 04:48:40;;;;;;;2.00;0.80;;;4.40;99.90;;;;;;5091870;28;20394;-72
2023/01/17 04:51:06;;;;;;;1.60;0.77;;;4.30;99.90;;;;;;5091349;28;20767;-72
2023/01/17 04:53:31;;;;;;;1.20;0.73;;;4.20;99.90;;;;;;5090495;28;20503;-72
2023/01/17 04:55:57;;;;;;;1.83;0.80;;;4.30;99.90;;;;;;5091356;28;20388;-72
2023/01/17 04:58:23;;;;;;;3.20;1.08;;;4.20;99.90;;;;;;5106642;28;20392;-72
2023/01/17 05:00:49;;;;;;;1.40;0.70;;;4.20;99.90;;;;;;5111604;28;20419;-72
2023/01/17 05:03:20;;;;;;;1.35;0.82;;;4.10;99.90;;;;;;5091616;28;20396;-72
2023/01/17 05:05:46;;;;;;;1.50;0.80;;;4.00;99.90;;;;;;5110541;28;20882;-72
2023/01/17 05:08:12;;;;;;;4.38;0.90;;;3.90;99.90;;;;;;5111389;28;20391;-72
2023/01/17 05:10:38;;;;;;;0.80;0.70;;;3.80;99.90;;;;;;5111399;28;20404;-72
2023/01/17 05:13:04;;;;;;;3.78;0.85;;;3.70;99.90;;;;;;5111234;28;20377;-72
2023/01/17 05:15:29;;;;;;;1.20;1.08;;;3.60;99.90;;;;;;5110643;28;20437;-71
2023/01/17 05:17:55;;;;;;;1.60;0.90;;;3.60;99.90;;;;;;5097028;28;20394;-72
2023/01/17 05:20:22;;;;;;;2.53;0.90;;;3.40;99.90;;;;;;5090866;28;20412;-72
2023/01/17 05:22:55;;;;;;;1.90;0.80;;;3.30;99.90;;;;;;5090257;28;20756;-72
2023/01/17 05:25:26;;;;;;;1.40;0.70;;;3.20;99.90;;;;;;5090769;28;20386;-72
2023/01/17 05:27:52;;;;;;;2.78;0.60;;;3.20;99.90;;;;;;5085066;28;20886;-75
2023/01/17 05:30:18;;;;;;;2.10;1.10;;;3.20;99.90;;;;;;5092643;28;20388;-72
2023/01/17 05:32:51;;;;;;;1.80;0.80;;;3.00;99.90;;;;;;5110253;28;20391;-72
2023/01/17 05:35:18;;;;;;;1.67;0.80;;;3.00;99.90;;;;;;5109214;28;20372;-72
2023/01/17 05:37:47;;;;;;;2.00;0.70;;;2.90;99.90;;;;;;5104793;28;20396;-72
2023/01/17 05:40:18;;;;;;;1.63;0.70;;;2.80;99.90;;;;;;5108288;28;20407;-72
2023/01/17 05:42:45;;;;;;;2.50;0.80;;;2.80;99.90;;;;;;5110142;28;20823;-71
2023/01/17 05:45:15;;;;;;;2.40;1.00;;;2.80;99.90;;;;;;5110300;28;20750;-72
2023/01/17 05:47:44;;;;;;;1.50;0.90;;;2.70;99.90;;;;;;5090717;28;20411;-72
2023/01/17 05:50:12;;;;;;;2.00;1.20;;;2.80;99.90;;;;;;5090215;28;20554;-72
2023/01/17 05:52:37;;;;;;;2.05;0.90;;;2.70;99.90;;;;;;5089723;28;20385;-72
2023/01/17 05:55:05;;;;;;;3.47;1.53;;;2.70;99.90;;;;;;5108303;28;20392;-72
2023/01/17 05:57:30;;;;;;;1.53;1.00;;;2.70;99.90;;;;;;5111085;28;20376;-72
2023/01/17 05:59:56;;;;;;;2.63;1.30;;;2.60;99.90;;;;;;5110284;28;20487;-71
2023/01/17 06:02:22;;;;;;;2.60;1.10;;;2.60;99.90;;;;;;5110478;28;20949;-71
2023/01/17 06:04:47;;;;;;;1.87;1.00;;;2.60;99.90;;;;;;5109826;28;20388;-72
2023/01/17 06:07:12;;;;;;;2.60;1.00;;;2.40;99.90;;;;;;5095931;28;20389;-72
2023/01/17 06:09:38;;;;;;;1.60;1.10;;;2.50;99.90;;;;;;5110580;28;20389;-72
2023/01/17 06:12:04;;;;;;;2.07;1.30;;;2.40;99.90;;;;;;5110429;28;20457;-72
2023/01/17 06:14:29;;;;;;;3.60;1.53;;;2.40;99.90;;;;;;5112592;28;20467;-71
2023/01/17 06:16:55;;;;;;;1.90;1.30;;;2.40;99.90;;;;;;5114108;28;20387;-72
2023/01/17 06:19:20;;;;;;;2.03;1.27;;;2.40;99.90;;;;;;5109565;28;20854;-72
2023/01/17 06:21:46;;;;;;;3.33;1.10;;;2.40;99.90;;;;;;5094306;28;20381;-71
2023/01/17 06:24:11;;;;;;;4.27;1.30;;;2.30;99.90;;;;;;5093297;28;20405;-71
2023/01/17 06:26:37;;;;;;;2.67;1.00;;;2.30;99.90;;;;;;5105255;28;20517;-72
2023/01/17 06:29:02;;;;;;;2.70;1.07;;;2.30;99.90;;;;;;5113389;28;20462;-71
2023/01/17 06:31:28;;;;;;;2.35;1.10;;;2.30;99.90;;;;;;5109568;28;20901;-71
2023/01/17 06:33:54;;;;;;;1.40;0.90;;;2.20;99.90;;;;;;5113752;28;20884;-71
2023/01/17 06:36:19;;;;;;;1.90;1.10;;;2.20;99.90;;;;;;5111267;28;20823;-72
2023/01/17 06:38:49;;;;;;;2.70;1.30;;;2.10;99.90;;;;;;5093925;28;20386;-72
2023/01/17 06:41:14;;;;;;;2.20;1.20;;;2.10;99.90;;;;;;5093525;28;20399;-72
2023/01/17 06:43:40;;;;;;;3.83;1.10;;;2.10;99.90;;;;;;5093107;28;20401;-72
2023/01/17 06:46:05;;;;;;;1.80;1.00;;;2.10;99.90;;;;;;5104691;28;20392;-72
2023/01/17 06:48:31;;;;;;;2.67;1.27;;;2.10;99.90;;;;;;5093775;28;20455;-72
2023/01/17 06:50:57;;;;;;;3.03;1.47;;;2.00;99.90;;;;;;5075493;28;20405;-72
2023/01/17 06:53:22;;;;;;;3.22;1.52;;;2.00;99.90;;;;;;5092892;28;20382;-73
2023/01/17 06:55:48;;;;;;;3.20;1.80;;;2.00;99.90;;;;;;5094792;28;20689;-73
2023/01/17 06:58:13;;;;;;;2.60;1.40;;;1.90;99.90;;;;;;5113848;28;20391;-72
2023/01/17 07:00:39;;;;;;;2.47;1.40;;;2.00;99.90;;;;;;5114223;28;20384;-72
2023/01/17 07:03:09;;;;;;;2.42;1.50;;;2.00;99.90;;;;;;5113088;28;20429;-72
2023/01/17 07:05:35;;;;;;;3.30;1.80;;;2.10;99.90;;;;;;5102726;28;20520;-71
2023/01/17 07:08:00;;;;;;;3.78;1.60;;;2.00;99.90;;;;;;5100502;28;20425;-72
2023/01/17 07:10:26;;;;;;;1.58;1.40;;;1.90;99.90;;;;;;5113566;28;20384;-72
2023/01/17 07:12:57;;;;;;;1.77;1.50;;;1.90;99.90;;;;;;5113146;28;20780;-72
2023/01/17 07:15:23;;;;;;;3.92;1.90;;;1.90;99.90;;;;;;5113116;28;20392;-72
2023/01/17 07:17:48;;;;;;;2.20;1.60;;;1.80;99.90;;;;;;5113540;28;20388;-72
2023/01/17 07:20:14;;;;;;;2.03;1.43;;;1.70;99.90;;;;;;5113462;28;20385;-73
2023/01/17 07:22:43;;;;;;;2.80;1.40;;;1.70;99.90;;;;;;5109510;28;20423;-73
2023/01/17 07:25:09;;;;;;;2.65;1.60;;;1.80;99.90;;;;;;5092278;28;20913;-73
2023/01/17 07:27:34;;;;;;;2.90;1.60;;;1.90;99.90;;;;;;5093156;28;20382;-73
2023/01/17 07:30:00;;;;;;;1.97;1.77;;;1.70;99.90;;;;;;5092947;28;20378;-73
2023/01/17 07:32:26;;;;;;;5.50;2.30;;;1.70;99.90;;;;;;5074583;28;20768;-73
2023/01/17 07:34:51;;;;;;;3.10;1.70;;;1.70;99.90;;;;;;5101462;28;20416;-73
2023/01/17 07:37:18;;;;;;;2.70;1.73;;;1.80;99.90;;;;;;5113277;28;20443;-73
2023/01/17 07:39:44;;;;;;;3.10;1.95;;;1.70;99.90;;;;;;5095501;28;20878;-72
2023/01/17 07:42:10;;;;;;;4.20;1.50;;;1.80;99.90;;;;;;5113201;28;20403;-73
2023/01/17 07:44:35;;;;;;;2.10;1.40;;;1.70;99.90;;;;;;5106313;28;20398;-72
2023/01/17 07:47:01;;;;;;;1.40;1.30;;;1.80;99.90;;;;;;5092823;28;20408;-72
2023/01/17 07:49:26;;;;;;;3.08;1.60;;;1.80;99.90;;;;;;5092655;28;20377;-73
2023/01/17 07:51:54;;;;;;;4.50;1.70;;;1.80;99.90;;;;;;5092542;28;20401;-72
2023/01/17 07:54:19;;;;;;;1.88;1.50;;;1.80;99.90;;;;;;5093071;28;20386;-73
2023/01/17 07:56:46;;;;;;;2.93;1.30;;;1.90;99.90;;;;;;5092448;28;20382;-70
2023/01/17 07:59:12;;;;;;;2.50;1.70;;;1.90;99.90;;;;;;5115758;23;20426;-72
2023/01/17 08:01:37;;;;;;;2.80;1.60;;;1.90;99.90;;;;;;5133520;27;20381;-73
2023/01/17 08:04:03;;;;;;;2.30;1.90;;;1.90;99.90;;;;;;5132909;27;20375;-72
2023/01/17 08:06:28;;;;;;;2.33;1.88;;;2.00;99.90;;;;;;5132991;27;20387;-72
2023/01/17 08:08:57;;;;;;;2.78;1.85;;;2.00;99.90;;;;;;5118301;27;20441;-73
2023/01/17 08:11:23;;;;;;;3.13;1.55;;;2.00;99.90;;;;;;5125356;27;20884;-72
2023/01/17 08:13:56;;;;;;;3.40;1.70;;;2.10;99.90;;;;;;5131214;27;20477;-73
2023/01/17 08:16:22;;;;;;;2.83;2.30;;;2.30;99.90;;;;;;5133186;27;20378;-72
2023/01/17 08:18:47;;;;;;;3.05;1.60;;;2.30;99.90;;;;;;5133067;27;20375;-72
2023/01/17 08:21:15;;;;;;;3.75;1.90;;;2.30;99.90;;;;;;5120922;27;20401;-72
2023/01/17 08:23:41;;;;;;;3.40;1.90;;;2.40;99.90;;;;;;5111659;28;20380;-73
2023/01/17 08:26:06;;;;;;;4.33;2.50;;;2.40;99.90;;;;;;5122559;27;20876;-73
2023/01/17 08:28:33;;;;;;;2.00;1.70;;;2.40;99.90;;;;;;5132965;27;20899;-73
2023/01/17 08:31:06;;;;;;;2.75;1.73;;;2.30;99.90;;;;;;5132749;27;20394;-74
2023/01/17 08:33:31;;;;;;;3.20;2.40;;;2.30;99.90;;;;;;5132283;27;20386;-72
2023/01/17 08:35:57;;;;;;;2.70;2.10;;;2.50;99.90;;;;;;5124050;27;20925;-74
2023/01/17 08:38:22;;;;;;;2.42;1.85;;;2.40;99.90;;;;;;5111095;28;20388;-73
2023/01/17 08:40:51;;;;;;;3.85;2.10;;;2.50;99.90;;;;;;5123899;27;20499;-72
2023/01/17 08:43:16;;;;;;;4.30;2.30;;;2.50;99.90;;;;;;5131932;27;20797;-72
2023/01/17 08:45:47;;;;;;;2.83;1.90;;;2.50;99.90;;;;;;5132445;27;20457;-73
2023/01/17 08:48:13;;;;;;;3.80;2.10;;;2.40;99.90;;;;;;5131112;27;20422;-73
2023/01/17 08:50:38;;;;;;;3.13;1.92;;;2.40;99.90;;;;;;5131749;27;20399;-73
2023/01/17 08:53:04;;;;;;;3.08;2.50;;;2.10;99.90;;;;;;5131858;27;20374;-73
2023/01/17 08:55:30;;;;;;;4.00;1.80;;;2.40;99.90;;;;;;5132251;27;20418;-74
2023/01/17 08:57:56;;;;;;;3.00;1.60;;;2.30;99.90;;;;;;5132480;27;20378;-74
2023/01/17 09:00:22;;;;;;;3.83;2.17;;;2.40;99.90;;;;;;5115170;27;20754;-74
2023/01/17 09:02:50;;;;;;;4.70;2.60;;;2.40;99.90;;;;;;5110805;28;20404;-73
2023/01/17 09:05:16;;;;;;;2.95;1.90;;;2.60;99.90;;;;;;5118403;27;20902;-72
2023/01/17 09:07:41;;;;;;;3.23;1.93;;;2.70;99.90;;;;;;5132074;27;20387;-73
2023/01/17 09:10:08;;;;;;;4.20;2.30;;;2.80;99.90;;;;;;5132029;27;20378;-72
2023/01/17 09:12:35;;;;;;;3.97;1.83;;;2.90;99.90;;;;;;5131166;27;20395;-74
2023/01/17 09:15:01;;;;;;;3.65;1.80;;;2.90;99.90;;;;;;5130581;27;20386;-73
2023/01/17 09:17:27;;;;;;;6.50;2.20;;;3.10;99.90;;;;;;5124691;27;20394;-73
2023/01/17 09:19:52;;;;;;;3.23;1.57;;;3.40;99.90;;;;;;5111304;28;20755;-73
2023/01/17 09:22:18;;;;;;;4.40;2.00;;;3.50;99.90;;;;;;5111267;28;20896;-73
2023/01/17 09:24:43;;;;;;;3.07;1.50;;;3.50;99.90;;;;;;5110326;28;20437;-73
2023/01/17 09:27:09;;;;;;;3.63;1.70;;;3.50;99.90;;;;;;5117116;27;20391;-73
2023/01/17 09:29:34;;;;;;;4.10;1.60;;;3.80;99.90;;;;;;5131742;27;20383;-73
2023/01/17 09:32:00;;;;;;;4.90;1.55;;;3.90;99.90;;;;;;5117860;27;20472;-73
2023/01/17 09:34:26;;;;;;;2.08;1.30;;;3.90;99.90;;;;;;5110499;28;20750;-73
2023/01/17 09:36:52;;;;;;;1.55;1.35;;;4.10;99.90;;;;;;5111136;28;20369;-72
2023/01/17 09:39:18;;;;;;;1.83;1.30;;;4.10;99.90;;;;;;5109738;28;20376;-72
2023/01/17 09:42:02;;;;;;;3.60;1.45;;;4.20;99.90;;;;;;5120727;27;20446;-73
2023/01/17 09:44:30;;;;;;;2.45;0.93;;;4.40;99.90;;;;;;5116862;27;21030;-73
2023/01/17 09:47:03;;;;;;;1.60;1.13;;;4.50;99.90;;;;;;5110922;28;20440;-74
2023/01/17 09:49:40;;;;;;;3.10;1.20;;;4.40;99.90;;;;;;5113194;28;20467;-73
2023/01/17 09:52:08;;;;;;;1.60;1.38;;;4.50;99.90;;;;;;5130298;27;20451;-74
2023/01/17 09:54:37;;;;;;;1.23;1.13;;;4.60;99.90;;;;;;5130774;28;20401;-73
2023/01/17 09:57:09;;;;;;;1.98;1.40;;;4.90;99.90;;;;;;5131303;28;20401;-74
2023/01/17 10:00:11;;;;;;;2.10;0.88;;;4.90;99.90;;;;;;5128390;28;20398;-74
2023/01/17 10:02:43;;;;;;;1.70;1.20;;;5.00;99.90;;;;;;5094005;28;20479;-73
2023/01/17 10:05:46;;;;;;;2.55;1.05;;;5.30;95.10;;;;;;5123250;28;20382;-73
2023/01/17 10:08:33;;;;;;;1.98;0.90;;;5.10;94.20;;;;;;5131100;28;20386;-73
2023/01/17 10:11:29;;;;;;;2.07;1.30;;;5.40;96.20;;;;;;5131343;28;20764;-74
2023/01/17 10:14:32;;;;;;;1.90;1.10;;;5.50;96.20;;;;;;5128429;28;20509;-73
2023/01/17 10:17:12;;;;;;;1.65;1.10;;;5.30;93.70;;;;;;5131340;28;20954;-73
2023/01/17 10:20:10;;;;;;;1.60;1.30;;;5.30;94.30;;;;;;5110641;28;20441;-73
2023/01/17 10:23:00;;;;;;;1.80;1.35;;;5.20;94.40;;;;;;5109942;28;20372;-73
2023/01/17 10:25:47;;;;;;;2.50;1.43;;;5.30;93.60;;;;;;5117393;28;20427;-73
2023/01/17 10:28:16;;;;;;;2.10;1.50;;;5.20;94.10;;;;;;5124363;28;20811;-73
2023/01/17 10:30:50;;;;;;;2.37;1.63;;;5.20;93.70;;;;;;5110692;28;20793;-73
2023/01/17 10:33:20;;;;;;;2.83;2.10;;;5.40;94.50;;;;;;5108736;28;20376;-73
2023/01/17 10:35:52;;;;;;;1.95;1.73;;;5.30;94.30;;;;;;5108300;28;20377;-72
2023/01/17 10:38:20;;;;;;;1.80;1.50;;;5.30;94.20;;;;;;5116164;28;20390;-73
2023/01/17 10:40:50;;;;;;;1.92;1.70;;;5.10;94.10;;;;;;5118352;28;20457;-73
2023/01/17 10:43:25;;;;;;;3.10;1.75;;;5.30;95.20;;;;;;5109722;28;20822;-73
2023/01/17 10:45:54;;;;;;;2.33;1.70;;;5.40;95.60;;;;;;5118647;28;20808;-73
2023/01/17 10:48:41;;;;;;;3.40;1.65;;;5.50;94.10;;;;;;5108881;28;20388;-73
2023/01/17 10:51:25;;;;;;;2.40;1.90;;;5.50;95.10;;;;;;5111221;28;20440;-74
2023/01/17 10:54:17;;;;;;;3.00;1.60;;;5.50;93.70;;;;;;5109700;28;20745;-74
2023/01/17 10:56:42;;;;;;;1.73;1.33;;;5.60;91.90;;;;;;5121002;28;20386;-75
2023/01/17 10:59:16;;;;;;;2.40;1.73;;;5.60;93.10;;;;;;5120178;28;20932;-74
2023/01/17 11:01:41;;;;;;;2.10;1.58;;;5.60;92.10;;;;;;5113519;28;20379;-74
2023/01/17 11:04:35;;;;;;;2.83;1.20;;;5.70;92.40;;;;;;5113532;28;20380;-74
2023/01/17 11:07:19;;;;;;;2.30;1.40;;;5.70;91.30;;;;;;5112944;28;20388;-74
2023/01/17 11:09:50;;;;;;;2.92;1.63;;;5.50;90.40;;;;;;5114730;27;20400;-74
2023/01/17 11:12:37;;;;;;;3.40;2.20;;;5.60;92.00;;;;;;5114029;28;20403;-74
2023/01/17 11:15:08;;;;;;;2.97;1.52;;;5.60;91.00;;;;;;5114193;28;20373;-72
2023/01/17 11:17:48;;;;;;;2.35;1.30;;;5.80;92.00;;;;;;5114511;28;20372;-73
2023/01/17 11:20:35;;;;;;;3.22;1.50;;;5.80;92.40;;;;;;5134709;27;20898;-74
2023/01/17 11:23:21;;;;;;;2.80;1.90;;;5.70;94.80;;;;;;5133838;27;20410;-73
2023/01/17 11:26:01;;;;;;;3.00;1.92;;;5.60;97.00;;;;;;5134156;27;20440;-72
2023/01/17 11:28:35;;;;;;;5.10;2.00;;;5.70;99.90;;;;;;5125487;27;20388;-73
2023/01/17 11:31:21;;;;;;;3.17;2.03;;;5.60;98.70;;;;;;5113631;28;20425;-73
2023/01/17 11:33:54;;;;;;;3.25;1.95;;;5.60;99.90;;;;;;5112682;28;20396;-73
2023/01/17 11:36:28;;;;;;;3.03;2.10;;;5.60;99.00;;;;;;5118940;27;20390;-73
2023/01/17 11:39:03;;;;;;;2.60;1.73;;;5.60;99.90;;;;;;5132329;27;20386;-74
2023/01/17 11:41:39;;;;;;;2.50;1.73;;;5.60;99.90;;;;;;5134240;27;20466;-74
2023/01/17 11:44:24;;;;;;;3.10;1.80;;;5.40;99.90;;;;;;5133183;27;20383;-73
2023/01/17 11:47:17;;;;;;;1.98;1.50;;;5.30;99.90;;;;;;5123667;27;20384;-74
2023/01/17 11:49:45;;;;;;;3.60;1.60;;;5.40;99.90;;;;;;5113224;28;20437;-74
2023/01/17 11:52:32;;;;;;;1.70;1.50;;;5.40;99.90;;;;;;5113415;28;20749;-73
2023/01/17 11:54:58;;;;;;;2.88;1.90;;;5.50;99.90;;;;;;5130662;27;20387;-74
2023/01/17 11:57:26;;;;;;;4.78;1.90;;;5.50;99.90;;;;;;5133520;27;20734;-73
2023/01/17 12:00:18;;;;;;;2.42;1.70;;;5.40;99.90;;;;;;5133299;27;20393;-73
2023/01/17 12:03:03;;;;;;;3.22;1.90;;;5.60;99.90;;;;;;5132792;27;20378;-73
2023/01/17 12:05:52;;;;;;;3.20;1.70;;;5.60;99.90;;;;;;5123973;27;20378;-72
2023/01/17 12:08:41;;;;;;;4.05;1.98;;;5.30;99.90;;;;;;5132974;27;20428;-73
2023/01/17 12:13:59;;;;;;;2.10;1.90;;;5.60;99.90;;;;;;5133018;27;20784;-73
2023/01/17 12:14:54;;;;;;;3.03;1.90;;;5.30;99.90;;;;;;5131387;27;20375;-73
2023/01/17 12:17:53;;;;;;;2.47;2.00;;;5.50;99.90;;;;;;5133079;27;20776;-72
2023/01/17 12:20:40;;;;;;;2.40;2.10;;;5.50;99.90;;;;;;5108443;27;20390;-73
2023/01/17 12:23:17;;;;;;;3.22;1.75;;;5.50;99.90;;;;;;5132387;27;20413;-73
2023/01/17 12:26:03;;;;;;;3.97;1.90;;;5.60;99.90;;;;;;5116486;27;20923;-73
2023/01/17 12:28:59;;;;;;;3.57;1.90;;;5.20;99.90;;;;;;5112859;28;20493;-74
2023/01/17 12:31:33;;;;;;;3.67;2.10;;;5.20;99.90;;;;;;5112280;28;20413;-73
2023/01/17 12:34:03;;;;;;;2.80;2.10;;;5.10;99.90;;;;;;5111750;28;20854;-72
2023/01/17 12:36:59;;;;;;;1.45;1.35;;;5.40;99.90;;;;;;5112569;27;20388;-73
2023/01/17 12:39:34;;;;;;;2.43;1.40;;;5.70;99.60;;;;;;5111909;28;20377;-73
2023/01/17 12:42:23;;;;;;;2.00;1.10;;;5.70;92.00;;;;;;5112727;27;20471;-73
2023/01/17 12:45:06;;;;;;;1.00;0.80;;;5.80;87.40;;;;;;5111763;28;20377;-73
2023/01/17 12:47:42;;;;;;;1.92;0.90;;;5.80;83.10;;;;;;5112093;28;20390;-74
2023/01/17 12:50:17;;;;;;;0.90;0.60;;;6.00;80.40;;;;;;5111868;28;20380;-73
2023/01/17 12:53:01;;;;;;;1.30;0.70;;;6.10;79.30;;;;;;5112591;27;20410;-73
2023/01/17 12:55:48;;;;;;;1.40;0.90;;;5.90;79.20;;;;;;5111970;28;20383;-73
2023/01/17 12:58:24;;;;;;;1.00;0.65;;;5.90;76.30;;;;;;5111637;28;20386;-73
2023/01/17 13:01:06;;;;;;;1.20;0.83;;;5.90;73.00;;;;;;5113334;27;20391;-73
2023/01/17 13:03:46;;;;;;;1.10;0.90;;;6.00;71.00;;;;;;5131529;27;20415;-73
2023/01/17 13:06:23;;;;;;;1.40;0.80;;;6.10;67.90;;;;;;5132387;27;20374;-74
2023/01/17 13:08:53;;;;;;;1.17;0.70;;;6.20;66.00;;;;;;5131955;27;20386;-74
2023/01/17 13:11:27;;;;;;;1.40;0.70;;;6.10;67.00;;;;;;5131497;27;20399;-73
2023/01/17 13:13:56;;;;;;;1.10;0.90;;;6.00;66.50;;;;;;5131492;27;20379;-74
2023/01/17 13:16:38;;;;;;;1.55;0.70;;;6.30;66.60;;;;;;5132129;27;20753;-74
2023/01/17 13:19:14;;;;;;;2.60;0.70;;;6.10;64.90;;;;;;5131921;27;20393;-73
2023/01/17 13:21:40;;;;;;;0.80;0.70;;;6.30;66.00;;;;;;5115521;27;20388;-74
2023/01/17 13:24:19;;;;;;;1.47;0.60;;;6.20;68.40;;;;;;5111042;27;20406;-74
2023/01/17 13:27:18;;;;;;;1.80;0.80;;;6.00;68.80;;;;;;5131518;27;20473;-74
2023/01/17 13:30:25;;;;;;;1.10;0.80;;;6.10;69.30;;;;;;5131779;27;20385;-73
2023/01/17 13:33:08;;;;;;;1.02;0.75;;;5.90;72.40;;;;;;5131053;27;20389;-75
2023/01/17 13:35:45;;;;;;;1.70;0.80;;;6.10;71.00;;;;;;5118752;27;20390;-74
2023/01/17 13:38:31;;;;;;;1.33;0.90;;;5.90;71.90;;;;;;5111130;28;20466;-74
2023/01/17 13:41:28;;;;;;;1.90;0.90;;;5.90;71.00;;;;;;5110591;28;20373;-74
2023/01/17 13:46:58;;;;;;;1.45;0.88;;;5.80;75.80;;;;;;5111478;28;20375;-75
2023/01/17 13:49:32;;;;;;;1.40;1.17;;;5.90;76.40;;;;;;5110941;28;20828;-74
2023/01/17 13:52:19;;;;;;;1.70;1.20;;;5.90;74.70;;;;;;5110974;28;20491;-74
2023/01/17 13:54:50;;;;;;;1.98;1.30;;;5.80;76.40;;;;;;5111270;28;20479;-74
2023/01/17 13:57:24;;;;;;;3.33;1.90;;;5.70;77.00;;;;;;5111111;28;20372;-74
2023/01/17 13:59:51;;;;;;;3.10;2.05;;;5.60;77.50;;;;;;5130107;22;20476;-71
2023/01/17 14:02:32;;;;;;;2.80;1.90;;;5.70;78.80;;;;;;5110930;28;20423;-71
2023/01/17 14:05:15;;;;;;;2.08;1.30;;;5.60;79.70;;;;;;5092360;28;20388;-70
2023/01/17 14:08:04;;;;;;;1.85;1.10;;;5.60;76.70;;;;;;5110802;28;20384;-70
2023/01/17 14:10:39;;;;;;;1.40;1.20;;;5.50;77.70;;;;;;5081389;28;20430;-70
2023/01/17 14:13:37;;;;;;;1.98;1.30;;;5.40;80.10;;;;;;5071297;28;20802;-70
2023/01/17 14:16:21;;;;;;;1.52;1.17;;;5.40;78.70;;;;;;5090407;28;20456;-70
2023/01/17 14:18:47;;;;;;;3.20;1.30;;;5.40;80.50;;;;;;5090700;28;20864;-70
2023/01/17 14:21:33;;;;;;;3.10;1.10;;;5.40;78.30;;;;;;5074984;28;20461;-71
2023/01/17 14:24:02;;;;;;;3.50;1.10;;;5.40;77.90;;;;;;5069283;28;20468;-70
2023/01/17 14:26:46;;;;;;;1.42;1.05;;;5.40;77.20;;;;;;5069656;28;20387;-71
2023/01/17 14:29:45;;;;;;;1.30;0.73;;;5.30;78.00;;;;;;5055950;28;20393;-71
2023/01/17 14:32:14;;;;;;;1.27;0.80;;;5.00;93.00;;;;;;5090168;28;20396;-71
2023/01/17 14:34:39;;;;;;;2.20;1.10;;;4.90;99.90;;;;;;5089465;28;20423;-70
2023/01/17 14:37:31;;;;;;;2.03;1.42;;;4.80;99.90;;;;;;5093922;28;20405;-71
2023/01/17 14:39:58;;;;;;;1.30;1.10;;;4.60;99.90;;;;;;5070737;28;20399;-70
2023/01/17 14:42:27;;;;;;;2.00;1.30;;;4.40;99.90;;;;;;5073598;28;20391;-69
2023/01/17 14:45:05;;;;;;;1.85;0.70;;;4.30;99.90;;;;;;5073227;28;20388;-70